San Diego International Airport
KSAN : now visible

Airfield :











YOU CAN JOIN US ON...

 
LOGIN :

Register | Disclaimer

   EN    FR    IT 

 









Legend :    VFR   Marginal VFR   IFR   Intensive IFR   Very Intensive IFR
Visi :
Ceiling :
>= 8 km
>= 3000ft
5 to 8 km
1000 to 3000 ft
1500m to 5 km
500 to 1000 ft
800 to 1500m
200 to 500 ft
< 800m
< 200 ft
Symbols :   Thunderstorms  Fog  Heavy snow  Heavy precipitations  Wind > 20 kt






- Airport Elevation : 17 ft
- IATA code : SAN


KSAN - San Diego International

CURRENT METAR :
  • 221451Z 21006KT 10SM SCT013 BKN028 BKN035 15/10 A2999 RMK AO2 SLP155 T01500100 53016

EXPIRED METARs :
  • 221351Z 20006KT 10SM BKN013 BKN020 BKN027 14/10 A2998 RMK AO2 SLP151 T01440100
  • 221334Z VRB05KT 10SM BKN013 OVC028 14/10 A2997 RMK AO2 T01440100
  • 221251Z 24007KT 10SM FEW020 BKN027 BKN044 15/09 A2996 RMK AO2 SLP143 T01500089

TAF KSAN
Valid from the 22 at 15:00 until the 23 at 18:00 UTC


221443Z 2215/2318 22007KT P6SM VCSH BKN015 OVC025
FM221800 27010KT P6SM SCT025 OVC035
FM230200 VRB05KT P6SM BKN025 OVC035
KZLA FIR / North America



MET'MAP, your aeronautical weather chart ! - Copyright ORBIFLY December 2007 - Disclaimer

ORBIFLY MET'MAP TEAM :

Programming & Development : Alexandra Zaïnal
Concept & original design : Baudouin d'Aumeries
Assistance for programming : Marc-Olivier Méhu
Technical & hardware support : Manuel Goepfert

Contact : metmap@orbifly.com




SOURCES & CREDITS :

   NOAA       Earth
Advisory